createdAt,value
2023-03-20T00:00:25.484Z,50.877094
2023-03-20T00:01:25.478Z,50.877079
2023-03-20T00:02:25.480Z,50.877129
2023-03-20T00:03:25.528Z,50.877026
2023-03-20T00:04:25.472Z,50.877071
2023-03-20T00:05:25.480Z,50.877083
2023-03-20T00:06:25.413Z,50.877178
2023-03-20T00:07:25.427Z,50.877087
2023-03-20T00:08:26.514Z,50.877106
2023-03-20T00:09:25.409Z,50.877045
2023-03-20T00:10:25.372Z,50.877174
2023-03-20T00:11:25.393Z,50.877056
2023-03-20T00:12:25.407Z,50.877163
2023-03-20T00:13:25.390Z,50.877102
2023-03-20T00:14:25.404Z,50.877159
2023-03-20T00:15:25.336Z,50.877178
2023-03-20T00:16:25.439Z,50.877182
2023-03-20T00:17:25.286Z,50.877155
2023-03-20T00:18:25.309Z,50.877125
2023-03-20T00:19:25.291Z,50.877174
2023-03-20T00:20:25.301Z,50.877182
2023-03-20T00:21:25.320Z,50.877197
2023-03-20T00:22:25.267Z,50.877163
2023-03-20T00:23:25.260Z,50.877155
2023-03-20T00:24:25.251Z,50.877140
2023-03-20T00:25:25.247Z,50.877136
2023-03-20T00:26:25.239Z,50.877125
2023-03-20T00:27:25.215Z,50.877144
2023-03-20T00:28:25.197Z,50.877155
2023-03-20T00:29:25.210Z,50.877182
2023-03-20T00:30:25.185Z,50.877148
2023-03-20T00:31:25.255Z,50.877171
2023-03-20T00:32:25.176Z,50.877167
2023-03-20T00:33:25.156Z,50.877190
2023-03-20T00:34:25.144Z,50.877193
2023-03-20T00:35:25.129Z,50.877186
2023-03-20T00:36:25.115Z,50.877159
2023-03-20T00:37:25.095Z,50.877159
2023-03-20T00:38:25.087Z,50.877136
2023-03-20T00:39:25.102Z,50.877129
2023-03-20T00:40:25.069Z,50.877090
2023-03-20T00:41:25.088Z,50.877140
2023-03-20T00:42:25.086Z,50.877182
2023-03-20T00:43:25.048Z,50.877193
2023-03-20T00:44:25.076Z,50.877205
2023-03-20T00:45:25.035Z,50.877209
2023-03-20T00:46:25.060Z,50.877232
2023-03-20T00:47:25.025Z,50.877224
2023-03-20T00:48:25.004Z,50.877235
2023-03-20T00:49:24.997Z,50.877228
2023-03-20T00:50:24.996Z,50.877243
2023-03-20T00:51:24.977Z,50.877235
2023-03-20T00:52:24.994Z,50.877220
2023-03-20T00:53:24.954Z,50.877213
2023-03-20T00:54:24.943Z,50.877201
2023-03-20T00:55:24.940Z,50.877201
2023-03-20T00:56:24.917Z,50.877201
2023-03-20T00:57:24.921Z,50.877209
2023-03-20T00:58:24.907Z,50.877178
2023-03-20T00:59:24.885Z,50.877193
2023-03-20T01:00:25.898Z,50.877174
2023-03-20T01:01:24.921Z,50.877167
2023-03-20T01:02:24.920Z,50.877190
2023-03-20T01:03:24.872Z,50.877186
2023-03-20T01:04:24.833Z,50.877136
2023-03-20T01:05:24.820Z,50.877216
2023-03-20T01:06:24.814Z,50.877232
2023-03-20T01:07:24.897Z,50.877178
2023-03-20T01:08:24.851Z,50.877216
2023-03-20T01:09:24.779Z,50.877224
2023-03-20T01:10:24.837Z,50.877205
2023-03-20T01:11:24.816Z,50.877205
2023-03-20T01:12:24.750Z,50.877197
2023-03-20T01:13:24.771Z,50.877190
2023-03-20T01:14:24.730Z,50.877209
2023-03-20T01:15:24.754Z,50.877197
2023-03-20T01:16:24.802Z,50.877216
2023-03-20T01:17:24.734Z,50.877209
2023-03-20T01:18:24.699Z,50.877213
2023-03-20T01:19:24.703Z,50.877193
2023-03-20T01:20:24.676Z,50.877205
2023-03-20T01:21:24.668Z,50.877201
2023-03-20T01:22:24.702Z,50.877190
2023-03-20T01:23:24.651Z,50.877216
2023-03-20T01:24:24.631Z,50.877213
2023-03-20T01:25:24.625Z,50.877201
2023-03-20T01:26:24.656Z,50.877174
2023-03-20T01:27:24.607Z,50.877190
2023-03-20T01:28:24.620Z,50.877163
2023-03-20T01:29:24.643Z,50.877159
2023-03-20T01:30:24.579Z,50.877144
2023-03-20T01:31:24.576Z,50.877129
2023-03-20T01:32:24.575Z,50.877132
2023-03-20T01:33:24.586Z,50.877121
2023-03-20T01:34:24.543Z,50.877186
2023-03-20T01:35:24.530Z,50.877163
2023-03-20T01:36:24.529Z,50.877136
2023-03-20T01:37:24.500Z,50.877144
2023-03-20T01:38:24.566Z,50.877155
2023-03-20T01:39:24.527Z,50.877190
2023-03-20T01:40:24.495Z,50.877232
2023-03-20T01:41:24.485Z,50.877251
2023-03-20T01:42:24.452Z,50.877243
2023-03-20T01:43:24.440Z,50.877235
2023-03-20T01:44:24.465Z,50.877197
2023-03-20T01:45:24.434Z,50.877144
2023-03-20T01:46:24.474Z,50.877197
2023-03-20T01:47:24.408Z,50.877232
2023-03-20T01:48:24.399Z,50.877216
2023-03-20T01:49:24.378Z,50.877193
2023-03-20T01:50:24.378Z,50.877121
2023-03-20T01:51:24.388Z,50.877148
2023-03-20T01:52:50.286Z,50.877148
2023-03-20T01:53:24.354Z,50.877411
2023-03-20T01:54:24.336Z,50.877411
2023-03-20T01:55:24.318Z,50.877995
2023-03-20T01:56:24.309Z,50.877968
2023-03-20T01:57:24.321Z,50.877895
2023-03-20T01:58:24.311Z,50.877762
2023-03-20T01:59:24.277Z,50.877617
2023-03-20T02:00:24.262Z,50.877171
2023-03-20T02:01:24.308Z,50.877151
2023-03-20T02:02:24.267Z,50.877155
2023-03-20T02:03:24.253Z,50.877174
2023-03-20T02:04:24.310Z,50.877151
2023-03-20T02:05:24.226Z,50.877151
2023-03-20T02:06:24.218Z,50.877159
2023-03-20T02:07:24.221Z,50.877220
2023-03-20T02:08:24.218Z,50.877106
2023-03-20T02:09:24.191Z,50.877129
2023-03-20T02:10:24.171Z,50.877209
2023-03-20T02:11:24.178Z,50.877159
2023-03-20T02:12:24.202Z,50.877174
2023-03-20T02:13:24.154Z,50.877228
2023-03-20T02:14:24.127Z,50.877331
2023-03-20T02:15:24.128Z,50.877274
2023-03-20T02:16:24.152Z,50.877209
2023-03-20T02:17:24.095Z,50.877205
2023-03-20T02:18:24.093Z,50.877174
2023-03-20T02:19:24.073Z,50.877235
2023-03-20T02:20:24.097Z,50.877262
2023-03-20T02:21:24.067Z,50.877228
2023-03-20T02:22:24.051Z,50.877186
2023-03-20T02:23:24.103Z,50.877197
2023-03-20T02:24:24.037Z,50.877251
2023-03-20T02:25:24.052Z,50.877281
2023-03-20T02:26:24.031Z,50.877308
2023-03-20T02:27:24.004Z,50.877159
2023-03-20T02:28:23.996Z,50.877163
2023-03-20T02:29:23.991Z,50.877079
2023-03-20T02:30:23.966Z,50.877121
2023-03-20T02:31:24.016Z,50.877178
2023-03-20T02:32:23.968Z,50.877159
2023-03-20T02:33:23.946Z,50.877182
2023-03-20T02:34:23.921Z,50.877205
2023-03-20T02:35:24.930Z,50.877102
2023-03-20T02:36:23.918Z,50.877098
2023-03-20T02:37:23.917Z,50.877148
2023-03-20T02:38:23.895Z,50.877155
2023-03-20T02:39:23.879Z,50.877132
2023-03-20T02:40:23.862Z,50.877178
2023-03-20T02:41:23.906Z,50.877193
2023-03-20T02:42:23.909Z,50.877197
2023-03-20T02:43:23.836Z,50.877174
2023-03-20T02:44:23.835Z,50.877247
2023-03-20T02:45:23.828Z,50.877209
2023-03-20T02:46:23.821Z,50.877190
2023-03-20T02:47:23.829Z,50.877190
2023-03-20T02:48:23.781Z,50.877251
2023-03-20T02:49:23.783Z,50.877178
2023-03-20T02:50:23.793Z,50.877159
2023-03-20T02:51:23.757Z,50.877106
2023-03-20T02:52:23.750Z,50.877205
2023-03-20T02:53:23.755Z,50.877239
2023-03-20T02:54:23.739Z,50.877232
2023-03-20T02:55:23.710Z,50.877239
2023-03-20T02:56:23.709Z,50.877197
2023-03-20T02:57:23.715Z,50.877186
2023-03-20T02:58:23.707Z,50.877209
2023-03-20T02:59:23.700Z,50.877167
2023-03-20T03:00:23.669Z,50.877205
2023-03-20T03:01:23.745Z,50.877285
2023-03-20T03:02:23.667Z,50.877346
2023-03-20T03:03:23.650Z,50.877213
2023-03-20T03:04:23.655Z,50.877220
2023-03-20T03:05:23.664Z,50.877258
2023-03-20T03:06:23.636Z,50.877296
2023-03-20T03:07:23.609Z,50.877281
2023-03-20T03:08:23.592Z,50.877232
2023-03-20T03:09:23.579Z,50.877277
2023-03-20T03:10:23.608Z,50.877312
2023-03-20T03:11:23.624Z,50.877285
2023-03-20T03:12:23.547Z,50.877274
2023-03-20T03:13:23.554Z,50.877209
2023-03-20T03:14:23.535Z,50.877144
2023-03-20T03:15:23.527Z,50.877216
2023-03-20T03:16:23.640Z,50.877312
2023-03-20T03:17:23.549Z,50.877277
2023-03-20T03:18:23.498Z,50.877251
2023-03-20T03:19:23.503Z,50.877186
2023-03-20T03:20:23.486Z,50.877205
2023-03-20T03:21:23.476Z,50.877216
2023-03-20T03:22:23.482Z,50.877239
2023-03-20T03:23:23.451Z,50.877247
2023-03-20T03:24:37.172Z,50.877220
2023-03-20T03:25:25.434Z,50.877277
2023-03-20T03:26:23.430Z,50.877213
2023-03-20T03:27:23.453Z,50.877186
2023-03-20T03:28:23.415Z,50.877193
2023-03-20T03:29:23.400Z,50.877205
2023-03-20T03:30:23.392Z,50.877251
2023-03-20T03:31:23.403Z,50.877239
2023-03-20T03:32:23.349Z,50.877235
2023-03-20T03:33:23.347Z,50.877205
2023-03-20T03:34:23.331Z,50.877197
2023-03-20T03:35:23.380Z,50.877178
2023-03-20T03:36:23.333Z,50.877254
2023-03-20T03:37:23.312Z,50.877190
2023-03-20T03:38:23.318Z,50.877193
2023-03-20T03:39:23.292Z,50.877235
2023-03-20T03:40:23.276Z,50.877186
2023-03-20T03:41:23.279Z,50.877159
2023-03-20T03:42:23.258Z,50.877163
2023-03-20T03:43:23.325Z,50.877197
2023-03-20T03:44:23.235Z,50.877205
2023-03-20T03:45:23.221Z,50.877193
2023-03-20T03:46:23.238Z,50.877182
2023-03-20T03:47:23.194Z,50.877159
2023-03-20T03:48:23.221Z,50.877159
2023-03-20T03:49:23.184Z,50.877167
2023-03-20T03:50:23.187Z,50.877174
2023-03-20T03:51:23.186Z,50.877174
2023-03-20T03:52:23.187Z,50.877174
2023-03-20T03:53:23.144Z,50.877151
2023-03-20T03:54:23.197Z,50.877190
2023-03-20T03:55:23.134Z,50.877178
2023-03-20T03:56:23.201Z,50.877174
2023-03-20T03:57:23.123Z,50.877132
2023-03-20T03:58:23.098Z,50.877186
2023-03-20T03:59:23.089Z,50.877159
2023-03-20T04:00:23.089Z,50.877190
2023-03-20T04:01:23.073Z,50.877239
2023-03-20T04:02:23.078Z,50.877224
2023-03-20T04:03:23.050Z,50.877235
2023-03-20T04:04:23.102Z,50.877178
2023-03-20T04:05:23.028Z,50.877216
2023-03-20T04:06:23.020Z,50.877197
2023-03-20T04:07:23.072Z,50.877213
2023-03-20T04:08:23.004Z,50.877193
2023-03-20T04:09:23.012Z,50.877190
2023-03-20T04:10:22.986Z,50.877228
2023-03-20T04:11:22.977Z,50.877197
2023-03-20T04:12:22.985Z,50.877083
2023-03-20T04:13:23.007Z,50.877102
2023-03-20T04:14:22.955Z,50.877186
2023-03-20T04:15:22.984Z,50.877167
2023-03-20T04:16:23.007Z,50.877129
2023-03-20T04:17:22.917Z,50.877094
2023-03-20T04:18:23.910Z,50.877136
2023-03-20T04:19:22.898Z,50.877125
2023-03-20T04:20:22.927Z,50.877178
2023-03-20T04:21:22.917Z,50.877151
2023-03-20T04:22:22.864Z,50.877159
2023-03-20T04:23:22.909Z,50.877148
2023-03-20T04:24:23.857Z,50.877148
2023-03-20T04:25:22.881Z,50.877182
2023-03-20T04:26:22.841Z,50.877136
2023-03-20T04:27:22.820Z,50.877159
2023-03-20T04:28:22.820Z,50.877213
2023-03-20T04:29:22.813Z,50.877151
2023-03-20T04:30:22.789Z,50.877159
2023-03-20T04:31:22.852Z,50.877125
2023-03-20T04:32:22.763Z,50.877121
2023-03-20T04:33:22.757Z,50.877163
2023-03-20T04:34:22.780Z,50.877178
2023-03-20T04:35:22.736Z,50.877159
2023-03-20T04:36:22.781Z,50.877155
2023-03-20T04:37:22.715Z,50.877201
2023-03-20T04:38:22.704Z,50.877182
2023-03-20T04:39:22.721Z,50.877167
2023-03-20T04:40:22.697Z,50.877190
2023-03-20T04:41:22.687Z,50.877163
2023-03-20T04:42:22.646Z,50.877174
2023-03-20T04:43:22.706Z,50.877190
2023-03-20T04:44:22.671Z,50.877205
2023-03-20T04:45:22.638Z,50.877205
2023-03-20T04:46:22.787Z,50.877220
2023-03-20T04:47:22.611Z,50.877216
2023-03-20T04:48:22.616Z,50.877193
2023-03-20T04:49:22.622Z,50.877174
2023-03-20T04:50:22.589Z,50.877209
2023-03-20T04:51:22.615Z,50.877190
2023-03-20T04:52:22.566Z,50.877216
2023-03-20T04:53:22.553Z,50.877205
2023-03-20T04:54:23.538Z,50.877239
2023-03-20T04:55:22.558Z,50.877239
2023-03-20T04:56:22.566Z,50.877224
2023-03-20T04:57:22.545Z,50.877197
2023-03-20T04:58:22.512Z,50.877197
2023-03-20T04:59:22.505Z,50.877167
2023-03-20T05:00:22.489Z,50.877213
2023-03-20T05:01:22.524Z,50.877232
2023-03-20T05:02:22.463Z,50.877270
2023-03-20T05:03:24.040Z,50.877293
2023-03-20T05:04:23.563Z,50.877239
2023-03-20T05:05:22.452Z,50.877190
2023-03-20T05:06:22.467Z,50.877197
2023-03-20T05:07:22.439Z,50.877235
2023-03-20T05:08:22.417Z,50.877201
2023-03-20T05:09:22.415Z,50.877243
2023-03-20T05:10:22.394Z,50.877171
2023-03-20T05:11:22.382Z,50.877193
2023-03-20T05:12:22.361Z,50.877144
2023-03-20T05:13:22.363Z,50.877193
2023-03-20T05:14:22.368Z,50.877155
2023-03-20T05:15:22.335Z,50.877148
2023-03-20T05:16:22.424Z,50.877190
2023-03-20T05:17:22.308Z,50.877193
2023-03-20T05:18:22.324Z,50.877205
2023-03-20T05:19:22.359Z,50.877182
2023-03-20T05:20:22.299Z,50.877197
2023-03-20T05:21:22.291Z,50.877209
2023-03-20T05:22:22.265Z,50.877197
2023-03-20T05:23:22.269Z,50.877151
2023-03-20T05:24:22.262Z,50.877132
2023-03-20T05:25:22.286Z,50.877151
2023-03-20T05:26:22.241Z,50.877163
2023-03-20T05:27:22.215Z,50.877201
2023-03-20T05:28:22.205Z,50.877193
2023-03-20T05:29:22.196Z,50.877190
2023-03-20T05:30:22.201Z,50.877186
2023-03-20T05:31:22.245Z,50.877171
2023-03-20T05:32:22.166Z,50.877174
2023-03-20T05:33:22.178Z,50.877171
2023-03-20T05:34:22.208Z,50.877178
2023-03-20T05:35:22.139Z,50.877193
2023-03-20T05:36:22.164Z,50.877190
2023-03-20T05:37:22.120Z,50.877197
2023-03-20T05:38:22.113Z,50.877186
2023-03-20T05:39:22.104Z,50.877178
2023-03-20T05:40:22.109Z,50.877159
2023-03-20T05:41:22.089Z,50.877148
2023-03-20T05:42:22.089Z,50.877174
2023-03-20T05:43:22.056Z,50.877132
2023-03-20T05:44:22.059Z,50.877151
2023-03-20T05:45:22.048Z,50.877167
2023-03-20T05:46:22.042Z,50.877148
2023-03-20T05:47:24.231Z,50.877155
2023-03-20T05:48:22.009Z,50.877140
2023-03-20T05:49:22.010Z,50.877174
2023-03-20T05:50:22.027Z,50.877144
2023-03-20T05:51:21.985Z,50.877136
2023-03-20T05:52:21.972Z,50.877136
2023-03-20T05:53:22.009Z,50.877171
2023-03-20T05:54:21.948Z,50.877171
2023-03-20T05:55:21.942Z,50.877201
2023-03-20T05:56:22.009Z,50.877205
2023-03-20T05:57:21.952Z,50.877193
2023-03-20T05:58:21.938Z,50.877197
2023-03-20T05:59:21.903Z,50.877182
2023-03-20T06:00:21.917Z,50.877167
2023-03-20T06:01:22.001Z,50.877136
2023-03-20T06:02:21.928Z,50.877129
2023-03-20T06:03:21.952Z,50.877151
2023-03-20T06:04:21.849Z,50.877178
2023-03-20T06:05:21.880Z,50.877174
2023-03-20T06:06:21.836Z,50.877178
2023-03-20T06:07:21.839Z,50.877186
2023-03-20T06:08:21.847Z,50.877159
2023-03-20T06:09:21.804Z,50.877186
2023-03-20T06:10:21.787Z,50.877182
2023-03-20T06:11:21.802Z,50.877197
2023-03-20T06:12:21.797Z,50.877193
2023-03-20T06:13:21.776Z,50.877193
2023-03-20T06:14:21.773Z,50.877205
2023-03-20T06:15:21.749Z,50.877197
2023-03-20T06:16:21.806Z,50.877213
2023-03-20T06:17:21.734Z,50.877209
2023-03-20T06:18:21.740Z,50.877216
2023-03-20T06:19:21.712Z,50.877190
2023-03-20T06:20:21.723Z,50.877193
2023-03-20T06:21:21.724Z,50.877201
2023-03-20T06:22:21.673Z,50.877197
2023-03-20T06:23:21.690Z,50.877197
2023-03-20T06:24:21.694Z,50.877193
2023-03-20T06:25:21.695Z,50.877182
2023-03-20T06:26:21.637Z,50.877174
2023-03-20T06:27:21.681Z,50.877182
2023-03-20T06:28:21.641Z,50.877182
2023-03-20T06:29:21.610Z,50.877178
2023-03-20T06:30:21.598Z,50.877182
2023-03-20T06:31:21.698Z,50.877201
2023-03-20T06:32:21.573Z,50.877205
2023-03-20T06:33:21.587Z,50.877209
2023-03-20T06:34:21.558Z,50.877182
2023-03-20T06:35:21.568Z,50.877190
2023-03-20T06:36:21.538Z,50.877186
2023-03-20T06:37:21.532Z,50.877186
2023-03-20T06:38:21.549Z,50.877167
2023-03-20T06:39:21.518Z,50.877186
2023-03-20T06:40:21.509Z,50.877182
2023-03-20T06:41:33.871Z,50.877174
2023-03-20T06:42:22.484Z,50.877136
2023-03-20T06:43:21.477Z,50.877148
2023-03-20T06:44:21.465Z,50.877155
2023-03-20T06:45:21.468Z,50.877163
2023-03-20T06:46:21.482Z,50.877167
2023-03-20T06:47:21.436Z,50.877178
2023-03-20T06:48:21.461Z,50.877167
2023-03-20T06:49:21.412Z,50.877186
2023-03-20T06:50:21.440Z,50.877201
2023-03-20T06:51:21.398Z,50.877197
2023-03-20T06:52:21.409Z,50.877209
2023-03-20T06:53:21.421Z,50.877205
2023-03-20T06:54:21.410Z,50.877178
2023-03-20T06:55:21.359Z,50.877182
2023-03-20T06:56:21.417Z,50.877174
2023-03-20T06:57:21.350Z,50.877148
2023-03-20T06:58:21.331Z,50.877197
2023-03-20T06:59:21.335Z,50.877193
2023-03-20T07:00:21.327Z,50.877201
2023-03-20T07:01:21.351Z,50.877209
2023-03-20T07:02:21.294Z,50.877193
2023-03-20T07:03:21.277Z,50.877186
2023-03-20T07:04:21.308Z,50.877186
2023-03-20T07:05:21.328Z,50.877190
2023-03-20T07:06:21.253Z,50.877171
2023-03-20T07:07:21.241Z,50.877186
2023-03-20T07:08:21.252Z,50.877167
2023-03-20T07:09:21.222Z,50.877174
2023-03-20T07:10:21.299Z,50.877163
2023-03-20T07:11:21.233Z,50.877163
2023-03-20T07:12:21.263Z,50.877148
2023-03-20T07:13:21.204Z,50.877110
2023-03-20T07:14:21.192Z,50.877144
2023-03-20T07:15:21.215Z,50.877148
2023-03-20T07:16:21.162Z,50.877155
2023-03-20T07:17:21.146Z,50.877167
2023-03-20T07:18:21.186Z,50.877159
2023-03-20T07:19:21.160Z,50.877167
2023-03-20T07:20:21.116Z,50.877163
2023-03-20T07:21:21.118Z,50.877151
2023-03-20T07:22:21.118Z,50.877148
2023-03-20T07:23:21.080Z,50.877167
2023-03-20T07:24:21.118Z,50.877140
2023-03-20T07:25:31.937Z,50.877129
2023-03-20T07:26:23.077Z,50.877148
2023-03-20T07:27:21.052Z,50.877167
2023-03-20T07:28:21.044Z,50.877171
2023-03-20T07:29:21.066Z,50.877163
2023-03-20T07:30:21.023Z,50.877197
2023-03-20T07:31:21.095Z,50.877182
2023-03-20T07:32:20.988Z,50.877144
2023-03-20T07:33:21.153Z,50.877174
2023-03-20T07:34:21.068Z,50.877174
2023-03-20T07:35:21.038Z,50.877190
2023-03-20T07:36:20.995Z,50.877167
2023-03-20T07:37:20.956Z,50.877148
2023-03-20T07:38:20.935Z,50.877121
2023-03-20T07:39:52.665Z,50.877182
2023-03-20T07:40:22.172Z,50.877197
2023-03-20T07:41:24.649Z,50.877144
2023-03-20T07:42:20.905Z,50.877201
2023-03-20T07:43:20.896Z,50.877193
2023-03-20T07:44:20.914Z,50.877167
2023-03-20T07:45:20.874Z,50.877205
2023-03-20T07:46:20.950Z,50.877216
2023-03-20T07:47:20.894Z,50.877148
2023-03-20T07:48:20.844Z,50.877121
2023-03-20T07:49:20.845Z,50.877167
2023-03-20T07:50:20.851Z,50.877205
2023-03-20T07:51:20.845Z,50.877243
2023-03-20T07:52:20.799Z,50.877075
2023-03-20T07:53:52.703Z,50.877075
2023-03-20T07:54:20.776Z,50.877071
2023-03-20T07:55:20.796Z,50.877174
2023-03-20T07:56:20.761Z,50.877190
2023-03-20T07:57:20.762Z,50.877205
2023-03-20T07:58:20.750Z,50.877232
2023-03-20T07:59:20.731Z,50.877254
2023-03-20T08:00:20.767Z,50.877247
2023-03-20T08:01:20.793Z,50.877239
2023-03-20T08:02:20.709Z,50.877228
2023-03-20T08:03:20.801Z,50.877235
2023-03-20T08:04:20.731Z,50.877209
2023-03-20T08:05:20.675Z,50.877232
2023-03-20T08:06:20.707Z,50.877228
2023-03-20T08:07:20.681Z,50.877213
2023-03-20T08:08:20.637Z,50.877216
2023-03-20T08:09:20.632Z,50.877209
2023-03-20T08:10:20.664Z,50.877186
2023-03-20T08:11:20.655Z,50.877232
2023-03-20T08:12:20.602Z,50.877232
2023-03-20T08:13:20.578Z,50.877205
2023-03-20T08:14:20.597Z,50.877197
2023-03-20T08:15:20.585Z,50.877224
2023-03-20T08:16:20.648Z,50.877235
2023-03-20T08:17:21.894Z,50.877213
2023-03-20T08:18:21.544Z,50.877209
2023-03-20T08:19:20.552Z,50.877228
2023-03-20T08:20:20.578Z,50.877239
2023-03-20T08:21:20.516Z,50.877254
2023-03-20T08:22:20.543Z,50.877224
2023-03-20T08:23:20.975Z,50.877197
2023-03-20T08:24:21.508Z,50.877209
2023-03-20T08:25:20.495Z,50.877239
2023-03-20T08:26:20.469Z,50.877224
2023-03-20T08:27:20.480Z,50.877213
2023-03-20T08:28:20.526Z,50.877228
2023-03-20T08:29:20.431Z,50.877209
2023-03-20T08:30:20.440Z,50.877228
2023-03-20T08:31:20.483Z,50.877239
2023-03-20T08:32:20.423Z,50.877224
2023-03-20T08:33:20.400Z,50.877232
2023-03-20T08:34:22.872Z,50.877243
2023-03-20T08:35:32.542Z,50.877239
2023-03-20T08:36:22.401Z,50.877258
2023-03-20T08:37:20.374Z,50.877254
2023-03-20T08:38:20.485Z,50.877266
2023-03-20T08:39:20.383Z,50.877296
2023-03-20T08:40:20.352Z,50.877296
2023-03-20T08:41:20.384Z,50.877247
2023-03-20T08:42:20.308Z,50.877254
2023-03-20T08:43:20.323Z,50.877243
2023-03-20T08:44:20.310Z,50.877254
2023-03-20T08:45:20.286Z,50.877247
2023-03-20T08:46:20.296Z,50.877266
2023-03-20T08:47:20.286Z,50.877254
2023-03-20T08:48:20.294Z,50.877262
2023-03-20T08:49:20.273Z,50.877274
2023-03-20T08:50:20.239Z,50.877247
2023-03-20T08:51:20.282Z,50.877274
2023-03-20T08:52:20.229Z,50.877281
2023-03-20T08:53:22.145Z,50.877235
2023-03-20T08:54:21.190Z,50.877270
2023-03-20T08:55:20.178Z,50.877235
2023-03-20T08:56:20.190Z,50.877258
2023-03-20T08:57:20.165Z,50.877274
2023-03-20T08:58:20.184Z,50.877308
2023-03-20T08:59:20.149Z,50.877277
2023-03-20T09:00:20.131Z,50.877357
2023-03-20T09:01:20.164Z,50.877327
2023-03-20T09:02:20.268Z,50.877312
2023-03-20T09:03:20.180Z,50.877270
2023-03-20T09:04:20.111Z,50.877247
2023-03-20T09:05:20.071Z,50.877266
2023-03-20T09:06:20.102Z,50.877213
2023-03-20T09:07:20.069Z,50.877262
2023-03-20T09:08:20.071Z,50.877224
2023-03-20T09:09:20.030Z,50.877247
2023-03-20T09:10:21.032Z,50.877228
2023-03-20T09:11:20.059Z,50.877235
2023-03-20T09:12:20.020Z,50.877232
2023-03-20T09:13:27.276Z,50.877224
2023-03-20T09:14:20.997Z,50.877262
2023-03-20T09:15:20.020Z,50.877270
2023-03-20T09:16:20.339Z,50.877258
2023-03-20T09:17:19.970Z,50.877243
2023-03-20T09:18:19.958Z,50.877251
2023-03-20T09:19:19.955Z,50.877235
2023-03-20T09:20:19.949Z,50.877251
2023-03-20T09:21:19.967Z,50.877247
2023-03-20T09:22:19.926Z,50.877239
2023-03-20T09:23:19.964Z,50.877216
2023-03-20T09:24:19.898Z,50.877197
2023-03-20T09:25:19.878Z,50.877197
2023-03-20T09:26:19.996Z,50.877201
2023-03-20T09:27:19.877Z,50.877197
2023-03-20T09:28:19.917Z,50.877205
2023-03-20T09:29:19.856Z,50.877186
2023-03-20T09:30:19.851Z,50.877193
2023-03-20T09:31:19.880Z,50.877201
2023-03-20T09:32:19.877Z,50.877220
2023-03-20T09:33:19.792Z,50.877197
2023-03-20T09:34:19.813Z,50.877190
2023-03-20T09:35:19.835Z,50.877220
2023-03-20T09:36:19.802Z,50.877228
2023-03-20T09:37:19.761Z,50.877220
2023-03-20T09:38:19.839Z,50.877209
2023-03-20T09:39:19.762Z,50.877209
2023-03-20T09:40:19.749Z,50.877213
2023-03-20T09:41:19.759Z,50.877205
2023-03-20T09:42:19.758Z,50.877213
2023-03-20T09:43:19.732Z,50.877197
2023-03-20T09:44:19.722Z,50.877209
2023-03-20T09:45:19.778Z,50.877232
2023-03-20T09:46:19.724Z,50.877224
2023-03-20T09:47:21.283Z,50.877201
2023-03-20T09:48:20.653Z,50.877216
2023-03-20T09:49:19.718Z,50.877216
2023-03-20T09:50:19.641Z,50.877205
2023-03-20T09:51:19.668Z,50.877167
2023-03-20T09:52:19.646Z,50.877159
2023-03-20T09:53:19.650Z,50.877178
2023-03-20T09:54:19.618Z,50.877239
2023-03-20T09:55:19.683Z,50.877228
2023-03-20T09:56:19.619Z,50.877235
2023-03-20T09:57:19.602Z,50.877220
2023-03-20T09:58:19.639Z,50.877216
2023-03-20T09:59:19.583Z,50.877167
2023-03-20T10:00:19.600Z,50.877178
2023-03-20T10:01:19.536Z,50.877186
2023-03-20T10:02:19.539Z,50.877144
2023-03-20T10:03:19.772Z,50.877174
2023-03-20T10:04:19.599Z,50.877174
2023-03-20T10:05:19.614Z,50.877190
2023-03-20T10:06:19.537Z,50.877205
2023-03-20T10:07:19.467Z,50.877235
2023-03-20T10:08:19.464Z,50.877270
2023-03-20T10:09:19.458Z,50.877270
2023-03-20T10:10:19.441Z,50.877243
2023-03-20T10:11:19.471Z,50.877254
2023-03-20T10:12:19.500Z,50.877209
2023-03-20T10:13:19.422Z,50.877239
2023-03-20T10:14:19.404Z,50.877224
2023-03-20T10:15:19.426Z,50.877201
2023-03-20T10:16:19.520Z,50.877270
2023-03-20T10:17:19.388Z,50.877258
2023-03-20T10:18:19.374Z,50.877235
2023-03-20T10:19:19.357Z,50.877285
2023-03-20T10:20:19.370Z,50.877209
2023-03-20T10:21:19.352Z,50.877125
2023-03-20T10:22:19.419Z,50.877209
2023-03-20T10:23:19.310Z,50.877243
2023-03-20T10:24:19.321Z,50.877205
2023-03-20T10:25:19.353Z,50.877228
2023-03-20T10:26:19.413Z,50.877220
2023-03-20T10:27:19.274Z,50.877220
2023-03-20T10:28:19.275Z,50.877201
2023-03-20T10:29:19.329Z,50.877254
2023-03-20T10:30:19.237Z,50.877247
2023-03-20T10:31:19.302Z,50.877213
2023-03-20T10:32:19.226Z,50.877171
2023-03-20T10:33:19.246Z,50.877182
2023-03-20T10:34:19.214Z,50.877178
2023-03-20T10:35:19.292Z,50.877186
2023-03-20T10:36:19.410Z,50.877144
2023-03-20T10:37:19.223Z,50.877220
2023-03-20T10:38:19.194Z,50.877205
2023-03-20T10:39:19.193Z,50.877235
2023-03-20T10:40:19.271Z,50.877262
2023-03-20T10:41:19.137Z,50.877251
2023-03-20T10:42:19.137Z,50.877239
2023-03-20T10:43:19.207Z,50.877239
2023-03-20T10:44:19.104Z,50.877197
2023-03-20T10:45:19.083Z,50.877205
2023-03-20T10:46:19.208Z,50.877220
2023-03-20T10:47:19.149Z,50.877174
2023-03-20T10:48:19.075Z,50.877186
2023-03-20T10:49:19.132Z,50.877209
2023-03-20T10:50:19.078Z,50.877232
2023-03-20T10:51:19.024Z,50.877239
2023-03-20T10:52:19.171Z,50.877228
2023-03-20T10:53:19.005Z,50.877205
2023-03-20T10:54:19.034Z,50.877232
2023-03-20T10:55:19.154Z,50.877251
2023-03-20T10:56:19.039Z,50.877201
2023-03-20T10:57:19.055Z,50.877213
2023-03-20T10:58:19.068Z,50.877228
2023-03-20T10:59:19.030Z,50.877190
2023-03-20T11:00:19.014Z,50.877190
2023-03-20T11:01:18.956Z,50.877201
2023-03-20T11:02:18.934Z,50.877193
2023-03-20T11:03:18.964Z,50.877224
2023-03-20T11:04:19.039Z,50.877197
2023-03-20T11:05:18.916Z,50.877216
2023-03-20T11:06:18.919Z,50.877220
2023-03-20T11:07:18.914Z,50.877235
2023-03-20T11:08:18.890Z,50.877220
2023-03-20T11:09:18.869Z,50.877239
2023-03-20T11:10:18.843Z,50.877228
2023-03-20T11:11:18.881Z,50.877243
2023-03-20T11:12:18.825Z,50.877232
2023-03-20T11:13:18.837Z,50.877220
2023-03-20T11:14:18.893Z,50.877213
2023-03-20T11:15:18.805Z,50.877163
2023-03-20T11:16:18.873Z,50.877167
2023-03-20T11:17:18.790Z,50.877167
2023-03-20T11:18:18.813Z,50.877213
2023-03-20T11:19:18.805Z,50.877216
2023-03-20T11:20:18.819Z,50.877224
2023-03-20T11:21:18.771Z,50.877228
2023-03-20T11:22:18.729Z,50.877247
2023-03-20T11:23:18.737Z,50.877239
2023-03-20T11:24:18.736Z,50.877205